sensor_id;sensor_type;location;lat;lon;timestamp;temperature;humidity
49729;DHT22;35617;50.714;7.114;2022-07-04T00:00:46;18.50;79.40
49729;DHT22;35617;50.714;7.114;2022-07-04T00:03:11;18.50;79.40
49729;DHT22;35617;50.714;7.114;2022-07-04T00:05:37;18.50;79.50
49729;DHT22;35617;50.714;7.114;2022-07-04T00:08:02;18.40;79.60
49729;DHT22;35617;50.714;7.114;2022-07-04T00:10:28;18.40;79.80
49729;DHT22;35617;50.714;7.114;2022-07-04T00:12:54;18.30;79.90
49729;DHT22;35617;50.714;7.114;2022-07-04T00:15:20;18.30;80.60
49729;DHT22;35617;50.714;7.114;2022-07-04T00:17:45;18.30;80.20
49729;DHT22;35617;50.714;7.114;2022-07-04T00:20:11;18.20;80.40
49729;DHT22;35617;50.714;7.114;2022-07-04T00:22:37;18.20;80.50
49729;DHT22;35617;50.714;7.114;2022-07-04T00:25:03;18.20;80.60
49729;DHT22;35617;50.714;7.114;2022-07-04T00:27:29;18.10;80.80
49729;DHT22;35617;50.714;7.114;2022-07-04T00:29:57;18.10;81.00
49729;DHT22;35617;50.714;7.114;2022-07-04T00:32:23;18.10;81.20
49729;DHT22;35617;50.714;7.114;2022-07-04T00:34:49;18.00;81.50
49729;DHT22;35617;50.714;7.114;2022-07-04T00:37:14;18.00;81.80
49729;DHT22;35617;50.714;7.114;2022-07-04T00:39:40;17.90;82.10
49729;DHT22;35617;50.714;7.114;2022-07-04T00:42:07;17.90;82.30
49729;DHT22;35617;50.714;7.114;2022-07-04T00:44:33;17.90;82.40
49729;DHT22;35617;50.714;7.114;2022-07-04T00:47:05;17.90;82.80
49729;DHT22;35617;50.714;7.114;2022-07-04T00:49:31;17.80;82.90
49729;DHT22;35617;50.714;7.114;2022-07-04T00:51:57;17.80;83.10
49729;DHT22;35617;50.714;7.114;2022-07-04T00:54:26;17.70;83.20
49729;DHT22;35617;50.714;7.114;2022-07-04T00:56:56;17.70;83.40
49729;DHT22;35617;50.714;7.114;2022-07-04T00:59:23;17.70;83.60
49729;DHT22;35617;50.714;7.114;2022-07-04T01:01:50;17.70;83.80
49729;DHT22;35617;50.714;7.114;2022-07-04T01:04:16;17.60;83.90
49729;DHT22;35617;50.714;7.114;2022-07-04T01:06:43;17.60;83.90
49729;DHT22;35617;50.714;7.114;2022-07-04T01:09:08;17.60;84.10
49729;DHT22;35617;50.714;7.114;2022-07-04T01:11:34;17.60;84.20
49729;DHT22;35617;50.714;7.114;2022-07-04T01:14:00;17.50;84.30
49729;DHT22;35617;50.714;7.114;2022-07-04T01:16:26;17.50;84.60
49729;DHT22;35617;50.714;7.114;2022-07-04T01:18:53;17.40;84.90
49729;DHT22;35617;50.714;7.114;2022-07-04T01:21:19;17.40;85.00
49729;DHT22;35617;50.714;7.114;2022-07-04T01:23:45;17.40;85.10
49729;DHT22;35617;50.714;7.114;2022-07-04T01:26:11;17.40;85.40
49729;DHT22;35617;50.714;7.114;2022-07-04T01:28:37;17.30;85.60
49729;DHT22;35617;50.714;7.114;2022-07-04T01:31:05;17.30;85.90
49729;DHT22;35617;50.714;7.114;2022-07-04T01:33:31;17.20;86.00
49729;DHT22;35617;50.714;7.114;2022-07-04T01:35:57;17.20;86.10
49729;DHT22;35617;50.714;7.114;2022-07-04T01:38:22;17.20;86.50
49729;DHT22;35617;50.714;7.114;2022-07-04T01:40:48;17.10;87.30
49729;DHT22;35617;50.714;7.114;2022-07-04T01:43:14;17.10;87.00
49729;DHT22;35617;50.714;7.114;2022-07-04T01:45:40;17.00;87.00
49729;DHT22;35617;50.714;7.114;2022-07-04T01:48:10;17.00;87.20
49729;DHT22;35617;50.714;7.114;2022-07-04T01:50:37;17.00;87.50
49729;DHT22;35617;50.714;7.114;2022-07-04T01:53:03;17.00;87.70
49729;DHT22;35617;50.714;7.114;2022-07-04T01:55:29;16.90;87.80
49729;DHT22;35617;50.714;7.114;2022-07-04T01:57:55;16.90;87.80
49729;DHT22;35617;50.714;7.114;2022-07-04T02:00:21;16.80;87.90
49729;DHT22;35617;50.714;7.114;2022-07-04T02:03:06;16.80;87.90
49729;DHT22;35617;50.714;7.114;2022-07-04T02:05:32;16.90;87.90
49729;DHT22;35617;50.714;7.114;2022-07-04T02:07:58;16.80;87.90
49729;DHT22;35617;50.714;7.114;2022-07-04T02:10:24;16.90;88.00
49729;DHT22;35617;50.714;7.114;2022-07-04T02:12:50;16.90;88.10
49729;DHT22;35617;50.714;7.114;2022-07-04T02:15:38;16.80;88.10
49729;DHT22;35617;50.714;7.114;2022-07-04T02:18:06;16.90;88.50
49729;DHT22;35617;50.714;7.114;2022-07-04T02:20:33;16.90;88.60
49729;DHT22;35617;50.714;7.114;2022-07-04T02:22:59;16.90;88.80
49729;DHT22;35617;50.714;7.114;2022-07-04T02:25:24;17.00;88.70
49729;DHT22;35617;50.714;7.114;2022-07-04T02:27:50;17.00;88.60
49729;DHT22;35617;50.714;7.114;2022-07-04T02:30:17;17.00;88.50
49729;DHT22;35617;50.714;7.114;2022-07-04T02:32:43;17.00;88.50
49729;DHT22;35617;50.714;7.114;2022-07-04T02:35:10;16.90;88.70
49729;DHT22;35617;50.714;7.114;2022-07-04T02:37:36;16.90;88.90
49729;DHT22;35617;50.714;7.114;2022-07-04T02:40:03;17.00;89.80
49729;DHT22;35617;50.714;7.114;2022-07-04T02:42:32;17.00;89.20
49729;DHT22;35617;50.714;7.114;2022-07-04T02:44:58;17.00;89.20
49729;DHT22;35617;50.714;7.114;2022-07-04T02:47:24;17.00;89.20
49729;DHT22;35617;50.714;7.114;2022-07-04T02:49:50;17.00;89.40
49729;DHT22;35617;50.714;7.114;2022-07-04T02:52:15;16.90;89.70
49729;DHT22;35617;50.714;7.114;2022-07-04T02:54:41;16.90;90.00
49729;DHT22;35617;50.714;7.114;2022-07-04T02:57:08;16.90;90.20
49729;DHT22;35617;50.714;7.114;2022-07-04T02:59:34;16.90;90.10
49729;DHT22;35617;50.714;7.114;2022-07-04T03:01:59;16.90;90.10
49729;DHT22;35617;50.714;7.114;2022-07-04T03:04:25;16.90;90.20
49729;DHT22;35617;50.714;7.114;2022-07-04T03:06:50;16.90;90.20
49729;DHT22;35617;50.714;7.114;2022-07-04T03:09:16;16.90;90.20
49729;DHT22;35617;50.714;7.114;2022-07-04T03:11:43;16.80;90.30
49729;DHT22;35617;50.714;7.114;2022-07-04T03:14:09;16.80;90.30
49729;DHT22;35617;50.714;7.114;2022-07-04T03:16:35;16.60;90.40
49729;DHT22;35617;50.714;7.114;2022-07-04T03:19:00;16.60;90.60
49729;DHT22;35617;50.714;7.114;2022-07-04T03:21:26;16.50;90.80
49729;DHT22;35617;50.714;7.114;2022-07-04T03:23:51;16.50;90.90
49729;DHT22;35617;50.714;7.114;2022-07-04T03:26:28;16.50;91.00
49729;DHT22;35617;50.714;7.114;2022-07-04T03:28:58;16.40;91.10
49729;DHT22;35617;50.714;7.114;2022-07-04T03:31:24;16.40;91.10
49729;DHT22;35617;50.714;7.114;2022-07-04T03:33:50;16.30;91.10
49729;DHT22;35617;50.714;7.114;2022-07-04T03:36:16;16.30;91.30
49729;DHT22;35617;50.714;7.114;2022-07-04T03:38:41;16.30;91.40
49729;DHT22;35617;50.714;7.114;2022-07-04T03:41:07;16.30;91.50
49729;DHT22;35617;50.714;7.114;2022-07-04T03:43:33;16.30;91.50
49729;DHT22;35617;50.714;7.114;2022-07-04T03:45:58;16.20;91.60
49729;DHT22;35617;50.714;7.114;2022-07-04T03:48:24;16.20;91.70
49729;DHT22;35617;50.714;7.114;2022-07-04T03:50:49;16.20;91.70
49729;DHT22;35617;50.714;7.114;2022-07-04T03:53:15;16.10;91.90
49729;DHT22;35617;50.714;7.114;2022-07-04T03:55:41;16.10;92.10
49729;DHT22;35617;50.714;7.114;2022-07-04T03:58:07;16.10;92.40
49729;DHT22;35617;50.714;7.114;2022-07-04T04:00:33;16.10;92.10
49729;DHT22;35617;50.714;7.114;2022-07-04T04:02:58;16.10;92.20
49729;DHT22;35617;50.714;7.114;2022-07-04T04:05:24;16.10;92.30
49729;DHT22;35617;50.714;7.114;2022-07-04T04:08:02;16.10;92.40
49729;DHT22;35617;50.714;7.114;2022-07-04T04:10:28;16.10;92.60
49729;DHT22;35617;50.714;7.114;2022-07-04T04:12:54;16.10;92.40
49729;DHT22;35617;50.714;7.114;2022-07-04T04:15:20;16.10;92.70
49729;DHT22;35617;50.714;7.114;2022-07-04T04:17:46;16.10;92.90
49729;DHT22;35617;50.714;7.114;2022-07-04T04:20:12;16.10;92.90
49729;DHT22;35617;50.714;7.114;2022-07-04T04:22:37;16.20;92.90
49729;DHT22;35617;50.714;7.114;2022-07-04T04:25:03;16.20;93.00
49729;DHT22;35617;50.714;7.114;2022-07-04T04:27:29;16.30;93.00
49729;DHT22;35617;50.714;7.114;2022-07-04T04:29:55;16.30;93.00
49729;DHT22;35617;50.714;7.114;2022-07-04T04:32:20;16.30;93.10
49729;DHT22;35617;50.714;7.114;2022-07-04T04:34:47;16.40;93.20
49729;DHT22;35617;50.714;7.114;2022-07-04T04:37:12;16.40;93.10
49729;DHT22;35617;50.714;7.114;2022-07-04T04:39:38;16.50;93.10
49729;DHT22;35617;50.714;7.114;2022-07-04T04:42:04;16.50;93.10
49729;DHT22;35617;50.714;7.114;2022-07-04T04:44:30;16.60;93.10
49729;DHT22;35617;50.714;7.114;2022-07-04T04:46:56;16.70;93.10
49729;DHT22;35617;50.714;7.114;2022-07-04T04:49:21;16.70;93.10
49729;DHT22;35617;50.714;7.114;2022-07-04T04:51:47;16.70;93.10
49729;DHT22;35617;50.714;7.114;2022-07-04T04:54:13;16.70;93.10
49729;DHT22;35617;50.714;7.114;2022-07-04T04:56:38;16.80;93.10
49729;DHT22;35617;50.714;7.114;2022-07-04T04:59:04;16.80;93.00
49729;DHT22;35617;50.714;7.114;2022-07-04T05:01:30;16.90;93.00
49729;DHT22;35617;50.714;7.114;2022-07-04T05:03:55;16.90;92.80
49729;DHT22;35617;50.714;7.114;2022-07-04T05:06:21;16.80;92.40
49729;DHT22;35617;50.714;7.114;2022-07-04T05:08:47;16.80;92.30
49729;DHT22;35617;50.714;7.114;2022-07-04T05:11:14;16.80;92.30
49729;DHT22;35617;50.714;7.114;2022-07-04T05:13:40;16.80;92.40
49729;DHT22;35617;50.714;7.114;2022-07-04T05:16:05;16.80;92.30
49729;DHT22;35617;50.714;7.114;2022-07-04T05:18:31;16.90;92.40
49729;DHT22;35617;50.714;7.114;2022-07-04T05:20:58;16.90;92.60
49729;DHT22;35617;50.714;7.114;2022-07-04T05:23:24;17.00;92.50
49729;DHT22;35617;50.714;7.114;2022-07-04T05:25:50;17.00;92.30
49729;DHT22;35617;50.714;7.114;2022-07-04T05:28:15;17.10;92.20
49729;DHT22;35617;50.714;7.114;2022-07-04T05:30:41;17.10;92.10
49729;DHT22;35617;50.714;7.114;2022-07-04T05:33:07;17.20;92.10
49729;DHT22;35617;50.714;7.114;2022-07-04T05:35:33;17.20;92.00
49729;DHT22;35617;50.714;7.114;2022-07-04T05:38:05;17.20;91.80
49729;DHT22;35617;50.714;7.114;2022-07-04T05:40:36;17.30;91.80
49729;DHT22;35617;50.714;7.114;2022-07-04T05:43:05;17.30;91.70
49729;DHT22;35617;50.714;7.114;2022-07-04T05:45:47;17.30;91.60
49729;DHT22;35617;50.714;7.114;2022-07-04T05:48:34;17.30;91.40
49729;DHT22;35617;50.714;7.114;2022-07-04T05:50:59;17.40;91.50
49729;DHT22;35617;50.714;7.114;2022-07-04T05:53:25;17.40;91.70
49729;DHT22;35617;50.714;7.114;2022-07-04T05:55:51;17.40;91.40
49729;DHT22;35617;50.714;7.114;2022-07-04T05:58:17;17.50;91.40
49729;DHT22;35617;50.714;7.114;2022-07-04T06:00:43;17.50;91.30
49729;DHT22;35617;50.714;7.114;2022-07-04T06:03:08;17.60;91.30
49729;DHT22;35617;50.714;7.114;2022-07-04T06:05:34;17.60;91.20
49729;DHT22;35617;50.714;7.114;2022-07-04T06:08:00;17.60;91.20
49729;DHT22;35617;50.714;7.114;2022-07-04T06:10:27;17.60;91.20
49729;DHT22;35617;50.714;7.114;2022-07-04T06:12:53;17.70;91.00
49729;DHT22;35617;50.714;7.114;2022-07-04T06:15:18;17.70;91.10
49729;DHT22;35617;50.714;7.114;2022-07-04T06:17:44;17.80;90.90
49729;DHT22;35617;50.714;7.114;2022-07-04T06:20:10;17.80;90.80
49729;DHT22;35617;50.714;7.114;2022-07-04T06:22:47;17.90;90.60
49729;DHT22;35617;50.714;7.114;2022-07-04T06:25:18;17.90;90.40
49729;DHT22;35617;50.714;7.114;2022-07-04T06:27:46;18.00;90.30
49729;DHT22;35617;50.714;7.114;2022-07-04T06:30:12;18.00;92.90
49729;DHT22;35617;50.714;7.114;2022-07-04T06:32:49;18.10;90.00
49729;DHT22;35617;50.714;7.114;2022-07-04T06:35:23;18.10;89.10
49729;DHT22;35617;50.714;7.114;2022-07-04T06:38:08;18.10;89.30
49729;DHT22;35617;50.714;7.114;2022-07-04T06:40:35;18.10;88.70
49729;DHT22;35617;50.714;7.114;2022-07-04T06:45:28;18.30;88.00
49729;DHT22;35617;50.714;7.114;2022-07-04T06:47:54;18.30;87.50
49729;DHT22;35617;50.714;7.114;2022-07-04T06:50:20;18.40;87.40
49729;DHT22;35617;50.714;7.114;2022-07-04T06:52:45;18.50;90.90
49729;DHT22;35617;50.714;7.114;2022-07-04T06:55:11;18.60;93.70
49729;DHT22;35617;50.714;7.114;2022-07-04T06:57:37;18.50;86.60
49729;DHT22;35617;50.714;7.114;2022-07-04T07:00:06;18.50;86.60
49729;DHT22;35617;50.714;7.114;2022-07-04T07:02:34;18.60;86.60
49729;DHT22;35617;50.714;7.114;2022-07-04T07:05:00;18.60;86.30
49729;DHT22;35617;50.714;7.114;2022-07-04T07:07:25;18.70;86.10
49729;DHT22;35617;50.714;7.114;2022-07-04T07:09:53;18.70;85.80
49729;DHT22;35617;50.714;7.114;2022-07-04T07:12:20;18.70;85.10
49729;DHT22;35617;50.714;7.114;2022-07-04T07:14:47;18.80;85.30
49729;DHT22;35617;50.714;7.114;2022-07-04T07:17:12;18.80;84.30
49729;DHT22;35617;50.714;7.114;2022-07-04T07:19:38;18.90;84.40
49729;DHT22;35617;50.714;7.114;2022-07-04T07:22:04;18.90;82.70
49729;DHT22;35617;50.714;7.114;2022-07-04T07:24:29;19.10;97.60
49729;DHT22;35617;50.714;7.114;2022-07-04T07:26:57;19.10;97.90
49729;DHT22;35617;50.714;7.114;2022-07-04T07:29:24;19.20;98.00
49729;DHT22;35617;50.714;7.114;2022-07-04T07:31:49;19.30;97.40
49729;DHT22;35617;50.714;7.114;2022-07-04T07:46:25;19.60;99.50
49729;DHT22;35617;50.714;7.114;2022-07-04T07:48:51;19.60;75.20
49729;DHT22;35617;50.714;7.114;2022-07-04T07:51:17;19.60;75.10
49729;DHT22;35617;50.714;7.114;2022-07-04T07:53:43;19.60;75.30
49729;DHT22;35617;50.714;7.114;2022-07-04T07:56:08;19.60;74.90
49729;DHT22;35617;50.714;7.114;2022-07-04T07:58:34;19.70;75.00
49729;DHT22;35617;50.714;7.114;2022-07-04T08:01:00;19.70;75.20
49729;DHT22;35617;50.714;7.114;2022-07-04T08:03:28;19.90;75.00
49729;DHT22;35617;50.714;7.114;2022-07-04T08:06:13;19.90;74.40
49729;DHT22;35617;50.714;7.114;2022-07-04T08:08:42;20.00;73.20
49729;DHT22;35617;50.714;7.114;2022-07-04T08:11:09;20.00;71.30
49729;DHT22;35617;50.714;7.114;2022-07-04T08:13:35;20.00;71.20
49729;DHT22;35617;50.714;7.114;2022-07-04T08:16:01;20.10;70.90
49729;DHT22;35617;50.714;7.114;2022-07-04T08:18:27;20.10;71.00
49729;DHT22;35617;50.714;7.114;2022-07-04T08:20:52;20.20;70.40
49729;DHT22;35617;50.714;7.114;2022-07-04T08:23:18;20.30;69.70
49729;DHT22;35617;50.714;7.114;2022-07-04T08:25:44;20.30;70.00
49729;DHT22;35617;50.714;7.114;2022-07-04T08:28:09;20.40;70.00
49729;DHT22;35617;50.714;7.114;2022-07-04T08:30:35;20.40;69.90
49729;DHT22;35617;50.714;7.114;2022-07-04T08:33:01;20.50;68.70
49729;DHT22;35617;50.714;7.114;2022-07-04T08:35:27;20.60;68.70
49729;DHT22;35617;50.714;7.114;2022-07-04T08:37:53;20.60;67.10
49729;DHT22;35617;50.714;7.114;2022-07-04T08:40:25;20.60;66.40
49729;DHT22;35617;50.714;7.114;2022-07-04T08:42:51;20.60;66.50
49729;DHT22;35617;50.714;7.114;2022-07-04T08:45:25;20.70;66.60
49729;DHT22;35617;50.714;7.114;2022-07-04T08:47:52;20.70;65.70
49729;DHT22;35617;50.714;7.114;2022-07-04T08:50:28;20.70;65.00
49729;DHT22;35617;50.714;7.114;2022-07-04T08:53:00;20.80;65.50
49729;DHT22;35617;50.714;7.114;2022-07-04T08:55:28;20.80;65.00
49729;DHT22;35617;50.714;7.114;2022-07-04T08:58:13;20.80;64.90
49729;DHT22;35617;50.714;7.114;2022-07-04T09:01:05;20.80;63.80
49729;DHT22;35617;50.714;7.114;2022-07-04T09:03:32;20.80;64.60
49729;DHT22;35617;50.714;7.114;2022-07-04T09:05:58;20.90;64.00
49729;DHT22;35617;50.714;7.114;2022-07-04T09:08:24;21.00;63.60
49729;DHT22;35617;50.714;7.114;2022-07-04T09:10:51;21.00;63.00
49729;DHT22;35617;50.714;7.114;2022-07-04T09:13:19;21.10;62.40
49729;DHT22;35617;50.714;7.114;2022-07-04T09:15:46;21.10;62.70
49729;DHT22;35617;50.714;7.114;2022-07-04T09:18:33;21.20;62.50
49729;DHT22;35617;50.714;7.114;2022-07-04T09:21:03;21.20;61.50
49729;DHT22;35617;50.714;7.114;2022-07-04T09:23:41;21.30;61.70
49729;DHT22;35617;50.714;7.114;2022-07-04T09:28:38;21.30;61.50
49729;DHT22;35617;50.714;7.114;2022-07-04T09:31:15;21.40;61.50
49729;DHT22;35617;50.714;7.114;2022-07-04T09:33:46;21.40;61.50
49729;DHT22;35617;50.714;7.114;2022-07-04T09:36:18;21.40;61.50
49729;DHT22;35617;50.714;7.114;2022-07-04T09:38:44;21.50;62.60
49729;DHT22;35617;50.714;7.114;2022-07-04T09:41:10;21.60;64.80
49729;DHT22;35617;50.714;7.114;2022-07-04T09:44:06;21.70;72.50
49729;DHT22;35617;50.714;7.114;2022-07-04T09:46:33;21.70;74.20
49729;DHT22;35617;50.714;7.114;2022-07-04T09:48:59;21.70;75.00
49729;DHT22;35617;50.714;7.114;2022-07-04T09:51:46;21.80;75.10
49729;DHT22;35617;50.714;7.114;2022-07-04T09:56:42;21.90;82.60
49729;DHT22;35617;50.714;7.114;2022-07-04T09:59:08;21.90;69.70
49729;DHT22;35617;50.714;7.114;2022-07-04T10:01:33;22.00;61.90
49729;DHT22;35617;50.714;7.114;2022-07-04T10:03:59;22.10;74.30
49729;DHT22;35617;50.714;7.114;2022-07-04T10:06:25;22.20;76.70
49729;DHT22;35617;50.714;7.114;2022-07-04T10:08:51;22.30;74.20
49729;DHT22;35617;50.714;7.114;2022-07-04T10:11:17;22.20;73.70
49729;DHT22;35617;50.714;7.114;2022-07-04T10:13:44;22.20;74.00
49729;DHT22;35617;50.714;7.114;2022-07-04T10:16:10;22.20;74.10
49729;DHT22;35617;50.714;7.114;2022-07-04T10:18:37;22.20;73.60
49729;DHT22;35617;50.714;7.114;2022-07-04T10:21:02;22.20;73.00
49729;DHT22;35617;50.714;7.114;2022-07-04T10:23:28;22.20;72.20
49729;DHT22;35617;50.714;7.114;2022-07-04T10:25:57;22.20;72.00
49729;DHT22;35617;50.714;7.114;2022-07-04T10:28:23;22.30;72.10
49729;DHT22;35617;50.714;7.114;2022-07-04T10:30:52;22.40;71.80
49729;DHT22;35617;50.714;7.114;2022-07-04T10:33:26;22.40;70.90
49729;DHT22;35617;50.714;7.114;2022-07-04T10:38:31;22.50;70.80
49729;DHT22;35617;50.714;7.114;2022-07-04T10:41:04;22.50;69.80
49729;DHT22;35617;50.714;7.114;2022-07-04T10:51:42;22.70;67.40
49729;DHT22;35617;50.714;7.114;2022-07-04T10:59:11;22.80;57.20
49729;DHT22;35617;50.714;7.114;2022-07-04T11:01:37;22.90;62.40
49729;DHT22;35617;50.714;7.114;2022-07-04T11:04:03;23.00;63.70
49729;DHT22;35617;50.714;7.114;2022-07-04T11:09:20;23.10;65.40
49729;DHT22;35617;50.714;7.114;2022-07-04T11:12:03;23.20;67.00
49729;DHT22;35617;50.714;7.114;2022-07-04T11:14:42;23.20;65.70
49729;DHT22;35617;50.714;7.114;2022-07-04T11:17:28;23.20;65.20
49729;DHT22;35617;50.714;7.114;2022-07-04T11:20:05;23.30;64.90
49729;DHT22;35617;50.714;7.114;2022-07-04T11:22:33;23.30;65.10
49729;DHT22;35617;50.714;7.114;2022-07-04T11:24:58;23.30;65.20
49729;DHT22;35617;50.714;7.114;2022-07-04T11:27:24;23.30;65.60
49729;DHT22;35617;50.714;7.114;2022-07-04T11:29:54;23.40;66.50
49729;DHT22;35617;50.714;7.114;2022-07-04T11:32:21;23.50;62.60
49729;DHT22;35617;50.714;7.114;2022-07-04T11:34:47;23.50;69.50
49729;DHT22;35617;50.714;7.114;2022-07-04T11:37:14;23.50;68.40
49729;DHT22;35617;50.714;7.114;2022-07-04T11:42:05;23.60;56.70
49729;DHT22;35617;50.714;7.114;2022-07-04T11:44:50;23.70;54.20
49729;DHT22;35617;50.714;7.114;2022-07-04T11:52:42;24.00;56.70
49729;DHT22;35617;50.714;7.114;2022-07-04T11:55:13;24.00;53.00
49729;DHT22;35617;50.714;7.114;2022-07-04T11:57:48;24.10;54.40
49729;DHT22;35617;50.714;7.114;2022-07-04T12:00:21;24.20;57.20
49729;DHT22;35617;50.714;7.114;2022-07-04T12:02:48;24.30;61.70
49729;DHT22;35617;50.714;7.114;2022-07-04T12:05:15;24.40;52.90
49729;DHT22;35617;50.714;7.114;2022-07-04T12:07:43;24.40;51.60
49729;DHT22;35617;50.714;7.114;2022-07-04T12:10:11;24.50;50.80
49729;DHT22;35617;50.714;7.114;2022-07-04T12:13:01;24.50;50.60
49729;DHT22;35617;50.714;7.114;2022-07-04T12:15:50;24.60;51.00
49729;DHT22;35617;50.714;7.114;2022-07-04T12:18:22;24.70;57.30
49729;DHT22;35617;50.714;7.114;2022-07-04T12:20:50;24.80;51.40
49729;DHT22;35617;50.714;7.114;2022-07-04T12:23:18;24.90;50.60
49729;DHT22;35617;50.714;7.114;2022-07-04T12:25:48;24.80;49.70
49729;DHT22;35617;50.714;7.114;2022-07-04T12:28:15;24.80;49.60
49729;DHT22;35617;50.714;7.114;2022-07-04T12:33:13;24.90;48.30
49729;DHT22;35617;50.714;7.114;2022-07-04T12:35:56;24.90;49.10
49729;DHT22;35617;50.714;7.114;2022-07-04T12:41:05;24.90;49.60
49729;DHT22;35617;50.714;7.114;2022-07-04T12:46:10;25.10;49.90
49729;DHT22;35617;50.714;7.114;2022-07-04T12:48:36;25.10;49.90
49729;DHT22;35617;50.714;7.114;2022-07-04T12:51:13;25.20;50.00
49729;DHT22;35617;50.714;7.114;2022-07-04T12:53:40;25.30;49.60
49729;DHT22;35617;50.714;7.114;2022-07-04T12:56:08;25.30;49.40
49729;DHT22;35617;50.714;7.114;2022-07-04T12:58:34;25.40;49.70
49729;DHT22;35617;50.714;7.114;2022-07-04T13:01:00;25.60;50.30
49729;DHT22;35617;50.714;7.114;2022-07-04T13:03:26;25.80;50.60
49729;DHT22;35617;50.714;7.114;2022-07-04T13:05:51;25.90;49.20
49729;DHT22;35617;50.714;7.114;2022-07-04T13:08:17;26.00;50.00
49729;DHT22;35617;50.714;7.114;2022-07-04T13:10:43;26.10;53.50
49729;DHT22;35617;50.714;7.114;2022-07-04T13:13:09;26.10;52.20
49729;DHT22;35617;50.714;7.114;2022-07-04T13:15:34;26.20;53.00
49729;DHT22;35617;50.714;7.114;2022-07-04T13:18:00;26.20;58.00
49729;DHT22;35617;50.714;7.114;2022-07-04T13:20:27;26.30;56.10
49729;DHT22;35617;50.714;7.114;2022-07-04T13:22:52;26.30;56.70
49729;DHT22;35617;50.714;7.114;2022-07-04T13:25:18;26.20;53.90
49729;DHT22;35617;50.714;7.114;2022-07-04T13:27:44;26.20;57.60
49729;DHT22;35617;50.714;7.114;2022-07-04T13:30:10;26.10;55.90
49729;DHT22;35617;50.714;7.114;2022-07-04T13:32:37;26.10;51.50
49729;DHT22;35617;50.714;7.114;2022-07-04T13:35:03;26.10;49.40
49729;DHT22;35617;50.714;7.114;2022-07-04T13:37:29;26.20;49.80
49729;DHT22;35617;50.714;7.114;2022-07-04T13:39:55;26.20;50.70
49729;DHT22;35617;50.714;7.114;2022-07-04T13:42:20;26.30;50.00
49729;DHT22;35617;50.714;7.114;2022-07-04T13:45:06;26.30;51.70
49729;DHT22;35617;50.714;7.114;2022-07-04T13:47:31;26.60;60.90
49729;DHT22;35617;50.714;7.114;2022-07-04T13:49:57;26.70;56.50
49729;DHT22;35617;50.714;7.114;2022-07-04T13:52:23;26.90;56.80
49729;DHT22;35617;50.714;7.114;2022-07-04T13:54:48;27.00;57.80
49729;DHT22;35617;50.714;7.114;2022-07-04T13:57:14;27.10;59.60
49729;DHT22;35617;50.714;7.114;2022-07-04T13:59:39;27.20;58.60
49729;DHT22;35617;50.714;7.114;2022-07-04T14:02:06;27.20;58.40
49729;DHT22;35617;50.714;7.114;2022-07-04T14:04:31;27.20;57.10
49729;DHT22;35617;50.714;7.114;2022-07-04T14:06:57;27.20;57.60
49729;DHT22;35617;50.714;7.114;2022-07-04T14:09:23;27.20;56.10
49729;DHT22;35617;50.714;7.114;2022-07-04T14:11:49;27.40;56.40
49729;DHT22;35617;50.714;7.114;2022-07-04T14:14:14;27.50;56.80
49729;DHT22;35617;50.714;7.114;2022-07-04T14:16:40;27.50;55.50
49729;DHT22;35617;50.714;7.114;2022-07-04T14:19:05;27.50;55.10
49729;DHT22;35617;50.714;7.114;2022-07-04T14:21:31;27.50;55.80
49729;DHT22;35617;50.714;7.114;2022-07-04T14:23:56;27.60;55.00
49729;DHT22;35617;50.714;7.114;2022-07-04T14:26:22;27.60;54.40
49729;DHT22;35617;50.714;7.114;2022-07-04T14:28:50;27.70;54.50
49729;DHT22;35617;50.714;7.114;2022-07-04T14:31:16;27.90;55.90
49729;DHT22;35617;50.714;7.114;2022-07-04T14:33:42;28.10;55.90
49729;DHT22;35617;50.714;7.114;2022-07-04T14:36:09;28.20;58.80
49729;DHT22;35617;50.714;7.114;2022-07-04T14:38:38;28.40;59.80
49729;DHT22;35617;50.714;7.114;2022-07-04T14:41:04;28.60;61.20
49729;DHT22;35617;50.714;7.114;2022-07-04T14:43:40;28.60;59.80
49729;DHT22;35617;50.714;7.114;2022-07-04T14:46:06;28.40;58.20
49729;DHT22;35617;50.714;7.114;2022-07-04T14:48:32;28.30;58.10
49729;DHT22;35617;50.714;7.114;2022-07-04T14:50:57;28.30;58.60
49729;DHT22;35617;50.714;7.114;2022-07-04T14:53:24;28.30;58.80
49729;DHT22;35617;50.714;7.114;2022-07-04T14:55:50;28.40;56.40
49729;DHT22;35617;50.714;7.114;2022-07-04T14:58:15;28.40;55.30
49729;DHT22;35617;50.714;7.114;2022-07-04T15:00:41;28.40;55.20
49729;DHT22;35617;50.714;7.114;2022-07-04T15:03:06;28.50;55.50
49729;DHT22;35617;50.714;7.114;2022-07-04T15:05:32;28.50;55.70
49729;DHT22;35617;50.714;7.114;2022-07-04T15:07:57;28.50;54.30
49729;DHT22;35617;50.714;7.114;2022-07-04T15:10:23;28.40;55.50
49729;DHT22;35617;50.714;7.114;2022-07-04T15:12:49;28.50;54.30
49729;DHT22;35617;50.714;7.114;2022-07-04T15:15:15;28.70;54.10
49729;DHT22;35617;50.714;7.114;2022-07-04T15:17:41;28.80;54.30
49729;DHT22;35617;50.714;7.114;2022-07-04T15:20:07;28.80;54.20
49729;DHT22;35617;50.714;7.114;2022-07-04T15:22:52;28.80;54.50
49729;DHT22;35617;50.714;7.114;2022-07-04T15:25:36;28.90;53.30
49729;DHT22;35617;50.714;7.114;2022-07-04T15:28:02;28.80;53.40
49729;DHT22;35617;50.714;7.114;2022-07-04T15:30:28;28.80;53.70
49729;DHT22;35617;50.714;7.114;2022-07-04T15:32:53;29.00;53.20
49729;DHT22;35617;50.714;7.114;2022-07-04T15:35:19;29.10;53.90
49729;DHT22;35617;50.714;7.114;2022-07-04T15:37:45;29.30;53.50
49729;DHT22;35617;50.714;7.114;2022-07-04T15:40:10;29.40;54.40
49729;DHT22;35617;50.714;7.114;2022-07-04T15:42:36;29.40;53.40
49729;DHT22;35617;50.714;7.114;2022-07-04T15:45:01;29.30;52.90
49729;DHT22;35617;50.714;7.114;2022-07-04T15:47:28;29.30;53.00
49729;DHT22;35617;50.714;7.114;2022-07-04T15:52:19;29.90;70.30
49729;DHT22;35617;50.714;7.114;2022-07-04T15:54:48;30.20;69.40
49729;DHT22;35617;50.714;7.114;2022-07-04T15:57:13;30.60;41.60
49729;DHT22;35617;50.714;7.114;2022-07-04T15:59:39;31.10;50.30
49729;DHT22;35617;50.714;7.114;2022-07-04T16:02:05;31.40;47.70
49729;DHT22;35617;50.714;7.114;2022-07-04T16:04:31;31.50;49.50
49729;DHT22;35617;50.714;7.114;2022-07-04T16:06:56;31.90;56.60
49729;DHT22;35617;50.714;7.114;2022-07-04T16:09:22;32.20;47.40
49729;DHT22;35617;50.714;7.114;2022-07-04T16:11:48;32.30;39.90
49729;DHT22;35617;50.714;7.114;2022-07-04T16:14:17;32.60;45.40
49729;DHT22;35617;50.714;7.114;2022-07-04T16:16:42;33.00;37.70
49729;DHT22;35617;50.714;7.114;2022-07-04T16:19:08;33.20;37.70
49729;DHT22;35617;50.714;7.114;2022-07-04T16:21:33;33.30;37.20
49729;DHT22;35617;50.714;7.114;2022-07-04T16:23:59;33.30;36.90
49729;DHT22;35617;50.714;7.114;2022-07-04T16:26:24;33.50;37.40
49729;DHT22;35617;50.714;7.114;2022-07-04T16:28:50;33.60;36.40